sensor_id;sensor_type;location;lat;lon;timestamp;P1;durP1;ratioP1;P2;durP2;ratioP2
73100;SDS011;61288;53.446;-2.266;2023-07-13T00:00:46;7.43;;;2.40;;
73100;SDS011;61288;53.446;-2.266;2023-07-13T00:03:11;8.85;;;2.47;;
73100;SDS011;61288;53.446;-2.266;2023-07-13T00:05:38;7.35;;;2.30;;
73100;SDS011;61288;53.446;-2.266;2023-07-13T00:08:05;6.95;;;2.22;;
73100;SDS011;61288;53.446;-2.266;2023-07-13T00:10:30;7.00;;;2.40;;
73100;SDS011;61288;53.446;-2.266;2023-07-13T00:12:56;8.88;;;2.28;;
73100;SDS011;61288;53.446;-2.266;2023-07-13T00:15:23;9.65;;;2.50;;
73100;SDS011;61288;53.446;-2.266;2023-07-13T00:17:51;8.23;;;2.05;;
73100;SDS011;61288;53.446;-2.266;2023-07-13T00:20:17;4.53;;;1.90;;
73100;SDS011;61288;53.446;-2.266;2023-07-13T00:22:49;7.53;;;1.90;;
73100;SDS011;61288;53.446;-2.266;2023-07-13T00:25:15;7.07;;;2.17;;
73100;SDS011;61288;53.446;-2.266;2023-07-13T00:27:42;6.40;;;2.22;;
73100;SDS011;61288;53.446;-2.266;2023-07-13T00:30:09;5.47;;;2.00;;
73100;SDS011;61288;53.446;-2.266;2023-07-13T00:32:37;8.55;;;2.00;;
73100;SDS011;61288;53.446;-2.266;2023-07-13T00:35:03;7.05;;;2.00;;
73100;SDS011;61288;53.446;-2.266;2023-07-13T00:37:29;6.25;;;1.80;;
73100;SDS011;61288;53.446;-2.266;2023-07-13T00:39:55;5.40;;;2.00;;
73100;SDS011;61288;53.446;-2.266;2023-07-13T00:42:20;7.32;;;1.83;;
73100;SDS011;61288;53.446;-2.266;2023-07-13T00:45:06;8.57;;;2.28;;
73100;SDS011;61288;53.446;-2.266;2023-07-13T00:47:53;8.48;;;2.55;;
73100;SDS011;61288;53.446;-2.266;2023-07-13T00:50:21;4.22;;;1.88;;
73100;SDS011;61288;53.446;-2.266;2023-07-13T00:52:49;5.10;;;1.77;;
73100;SDS011;61288;53.446;-2.266;2023-07-13T00:55:18;9.07;;;2.17;;
73100;SDS011;61288;53.446;-2.266;2023-07-13T00:57:46;6.68;;;2.20;;
73100;SDS011;61288;53.446;-2.266;2023-07-13T01:00:12;4.90;;;1.52;;
73100;SDS011;61288;53.446;-2.266;2023-07-13T01:02:39;6.22;;;1.98;;
73100;SDS011;61288;53.446;-2.266;2023-07-13T01:05:15;8.93;;;2.28;;
73100;SDS011;61288;53.446;-2.266;2023-07-13T01:07:43;8.45;;;2.13;;
73100;SDS011;61288;53.446;-2.266;2023-07-13T01:10:11;6.00;;;2.00;;
73100;SDS011;61288;53.446;-2.266;2023-07-13T01:12:38;6.05;;;2.20;;
73100;SDS011;61288;53.446;-2.266;2023-07-13T01:15:04;6.47;;;2.28;;
73100;SDS011;61288;53.446;-2.266;2023-07-13T01:17:51;6.80;;;1.92;;
73100;SDS011;61288;53.446;-2.266;2023-07-13T01:20:16;8.27;;;2.30;;
73100;SDS011;61288;53.446;-2.266;2023-07-13T01:22:42;6.93;;;2.13;;
73100;SDS011;61288;53.446;-2.266;2023-07-13T01:25:08;8.27;;;3.08;;
73100;SDS011;61288;53.446;-2.266;2023-07-13T01:27:33;5.90;;;2.05;;
73100;SDS011;61288;53.446;-2.266;2023-07-13T01:29:59;4.85;;;2.00;;
73100;SDS011;61288;53.446;-2.266;2023-07-13T01:32:29;6.18;;;2.13;;
73100;SDS011;61288;53.446;-2.266;2023-07-13T01:34:56;11.38;;;2.92;;
73100;SDS011;61288;53.446;-2.266;2023-07-13T01:37:22;7.35;;;2.10;;
73100;SDS011;61288;53.446;-2.266;2023-07-13T01:39:49;5.72;;;2.22;;
73100;SDS011;61288;53.446;-2.266;2023-07-13T01:42:15;9.15;;;2.63;;
73100;SDS011;61288;53.446;-2.266;2023-07-13T01:44:40;10.00;;;2.70;;
73100;SDS011;61288;53.446;-2.266;2023-07-13T01:47:06;9.27;;;2.83;;
73100;SDS011;61288;53.446;-2.266;2023-07-13T01:49:32;9.40;;;2.38;;
73100;SDS011;61288;53.446;-2.266;2023-07-13T01:52:02;8.68;;;2.22;;
73100;SDS011;61288;53.446;-2.266;2023-07-13T01:54:28;9.93;;;2.60;;
73100;SDS011;61288;53.446;-2.266;2023-07-13T01:56:53;10.10;;;3.17;;
73100;SDS011;61288;53.446;-2.266;2023-07-13T01:59:19;10.07;;;2.85;;
73100;SDS011;61288;53.446;-2.266;2023-07-13T02:01:44;5.55;;;2.35;;
73100;SDS011;61288;53.446;-2.266;2023-07-13T02:04:11;10.15;;;2.40;;
73100;SDS011;61288;53.446;-2.266;2023-07-13T02:06:36;9.10;;;2.78;;
73100;SDS011;61288;53.446;-2.266;2023-07-13T02:09:02;10.18;;;2.35;;
73100;SDS011;61288;53.446;-2.266;2023-07-13T02:11:28;11.00;;;3.25;;
73100;SDS011;61288;53.446;-2.266;2023-07-13T02:13:58;10.38;;;2.90;;
73100;SDS011;61288;53.446;-2.266;2023-07-13T02:16:24;7.93;;;2.90;;
73100;SDS011;61288;53.446;-2.266;2023-07-13T02:18:50;9.43;;;3.20;;
73100;SDS011;61288;53.446;-2.266;2023-07-13T02:21:17;10.95;;;3.00;;
73100;SDS011;61288;53.446;-2.266;2023-07-13T02:23:43;11.40;;;3.30;;
73100;SDS011;61288;53.446;-2.266;2023-07-13T02:26:09;10.07;;;2.88;;
73100;SDS011;61288;53.446;-2.266;2023-07-13T02:28:35;12.43;;;3.33;;
73100;SDS011;61288;53.446;-2.266;2023-07-13T02:31:05;9.43;;;3.17;;
73100;SDS011;61288;53.446;-2.266;2023-07-13T02:33:31;8.30;;;2.72;;
73100;SDS011;61288;53.446;-2.266;2023-07-13T02:35:56;9.82;;;3.30;;
73100;SDS011;61288;53.446;-2.266;2023-07-13T02:38:22;14.55;;;3.28;;
73100;SDS011;61288;53.446;-2.266;2023-07-13T02:40:48;11.27;;;3.00;;
73100;SDS011;61288;53.446;-2.266;2023-07-13T02:43:13;14.02;;;3.15;;
73100;SDS011;61288;53.446;-2.266;2023-07-13T02:45:43;8.45;;;3.38;;
73100;SDS011;61288;53.446;-2.266;2023-07-13T02:48:09;8.57;;;3.17;;
73100;SDS011;61288;53.446;-2.266;2023-07-13T02:50:35;12.43;;;3.85;;
73100;SDS011;61288;53.446;-2.266;2023-07-13T02:53:01;11.18;;;3.40;;
73100;SDS011;61288;53.446;-2.266;2023-07-13T02:55:26;7.05;;;3.08;;
73100;SDS011;61288;53.446;-2.266;2023-07-13T02:57:55;9.13;;;3.17;;
73100;SDS011;61288;53.446;-2.266;2023-07-13T03:00:20;10.38;;;3.80;;
73100;SDS011;61288;53.446;-2.266;2023-07-13T03:02:46;10.10;;;3.25;;
73100;SDS011;61288;53.446;-2.266;2023-07-13T03:05:11;11.07;;;3.80;;
73100;SDS011;61288;53.446;-2.266;2023-07-13T03:07:38;7.82;;;2.90;;
73100;SDS011;61288;53.446;-2.266;2023-07-13T03:10:04;12.00;;;3.72;;
73100;SDS011;61288;53.446;-2.266;2023-07-13T03:12:31;12.23;;;3.70;;
73100;SDS011;61288;53.446;-2.266;2023-07-13T03:14:57;10.93;;;2.85;;
73100;SDS011;61288;53.446;-2.266;2023-07-13T03:17:23;9.48;;;4.00;;
73100;SDS011;61288;53.446;-2.266;2023-07-13T03:19:48;11.98;;;3.72;;
73100;SDS011;61288;53.446;-2.266;2023-07-13T03:22:16;10.02;;;3.50;;
73100;SDS011;61288;53.446;-2.266;2023-07-13T03:24:43;12.32;;;2.95;;
73100;SDS011;61288;53.446;-2.266;2023-07-13T03:27:10;11.48;;;3.42;;
73100;SDS011;61288;53.446;-2.266;2023-07-13T03:29:36;10.85;;;3.17;;
73100;SDS011;61288;53.446;-2.266;2023-07-13T03:32:01;10.07;;;3.45;;
73100;SDS011;61288;53.446;-2.266;2023-07-13T03:34:27;12.13;;;3.65;;
73100;SDS011;61288;53.446;-2.266;2023-07-13T03:36:54;12.10;;;3.38;;
73100;SDS011;61288;53.446;-2.266;2023-07-13T03:39:20;13.20;;;3.83;;
73100;SDS011;61288;53.446;-2.266;2023-07-13T03:41:47;21.75;;;3.83;;
73100;SDS011;61288;53.446;-2.266;2023-07-13T03:44:12;9.82;;;3.47;;
73100;SDS011;61288;53.446;-2.266;2023-07-13T03:46:38;8.48;;;3.35;;
73100;SDS011;61288;53.446;-2.266;2023-07-13T03:49:04;9.50;;;3.75;;
73100;SDS011;61288;53.446;-2.266;2023-07-13T03:51:30;11.63;;;3.38;;
73100;SDS011;61288;53.446;-2.266;2023-07-13T03:53:56;9.65;;;3.75;;
73100;SDS011;61288;53.446;-2.266;2023-07-13T03:56:22;11.27;;;3.70;;
73100;SDS011;61288;53.446;-2.266;2023-07-13T03:58:48;11.18;;;3.67;;
73100;SDS011;61288;53.446;-2.266;2023-07-13T04:01:15;12.85;;;3.75;;
73100;SDS011;61288;53.446;-2.266;2023-07-13T04:03:44;13.38;;;3.92;;
73100;SDS011;61288;53.446;-2.266;2023-07-13T04:06:21;10.38;;;3.78;;
73100;SDS011;61288;53.446;-2.266;2023-07-13T04:08:53;13.32;;;4.57;;
73100;SDS011;61288;53.446;-2.266;2023-07-13T04:11:20;10.77;;;3.50;;
73100;SDS011;61288;53.446;-2.266;2023-07-13T04:13:48;11.27;;;3.80;;
73100;SDS011;61288;53.446;-2.266;2023-07-13T04:16:14;20.27;;;4.30;;
73100;SDS011;61288;53.446;-2.266;2023-07-13T04:18:41;8.65;;;3.17;;
73100;SDS011;61288;53.446;-2.266;2023-07-13T04:21:07;11.75;;;3.85;;
73100;SDS011;61288;53.446;-2.266;2023-07-13T04:23:34;11.73;;;4.20;;
73100;SDS011;61288;53.446;-2.266;2023-07-13T04:26:00;9.60;;;3.78;;
73100;SDS011;61288;53.446;-2.266;2023-07-13T04:28:26;11.52;;;4.40;;
73100;SDS011;61288;53.446;-2.266;2023-07-13T04:30:52;11.00;;;3.70;;
73100;SDS011;61288;53.446;-2.266;2023-07-13T04:33:19;10.77;;;3.80;;
73100;SDS011;61288;53.446;-2.266;2023-07-13T04:35:50;10.50;;;3.72;;
73100;SDS011;61288;53.446;-2.266;2023-07-13T04:38:21;9.32;;;3.70;;
73100;SDS011;61288;53.446;-2.266;2023-07-13T04:40:49;14.68;;;4.00;;
73100;SDS011;61288;53.446;-2.266;2023-07-13T04:43:16;11.48;;;3.95;;
73100;SDS011;61288;53.446;-2.266;2023-07-13T04:45:41;16.63;;;4.03;;
73100;SDS011;61288;53.446;-2.266;2023-07-13T04:48:07;14.07;;;3.28;;
73100;SDS011;61288;53.446;-2.266;2023-07-13T04:50:35;11.75;;;3.75;;
73100;SDS011;61288;53.446;-2.266;2023-07-13T04:53:01;11.82;;;3.83;;
73100;SDS011;61288;53.446;-2.266;2023-07-13T04:55:27;13.85;;;3.53;;
73100;SDS011;61288;53.446;-2.266;2023-07-13T04:57:55;12.43;;;3.47;;
73100;SDS011;61288;53.446;-2.266;2023-07-13T05:00:23;10.98;;;3.17;;
73100;SDS011;61288;53.446;-2.266;2023-07-13T05:02:49;10.35;;;3.00;;
73100;SDS011;61288;53.446;-2.266;2023-07-13T05:05:16;12.30;;;3.40;;
73100;SDS011;61288;53.446;-2.266;2023-07-13T05:07:43;10.30;;;3.63;;
73100;SDS011;61288;53.446;-2.266;2023-07-13T05:10:09;9.00;;;3.80;;
73100;SDS011;61288;53.446;-2.266;2023-07-13T05:12:34;13.45;;;4.30;;
73100;SDS011;61288;53.446;-2.266;2023-07-13T05:15:01;12.52;;;3.85;;
73100;SDS011;61288;53.446;-2.266;2023-07-13T05:17:26;13.18;;;3.78;;
73100;SDS011;61288;53.446;-2.266;2023-07-13T05:19:54;12.52;;;4.40;;
73100;SDS011;61288;53.446;-2.266;2023-07-13T05:22:19;11.43;;;4.03;;
73100;SDS011;61288;53.446;-2.266;2023-07-13T05:24:45;13.23;;;3.55;;
73100;SDS011;61288;53.446;-2.266;2023-07-13T05:27:10;9.68;;;3.50;;
73100;SDS011;61288;53.446;-2.266;2023-07-13T05:29:36;10.93;;;3.75;;
73100;SDS011;61288;53.446;-2.266;2023-07-13T05:32:01;11.95;;;3.58;;
73100;SDS011;61288;53.446;-2.266;2023-07-13T05:34:27;10.48;;;3.40;;
73100;SDS011;61288;53.446;-2.266;2023-07-13T05:36:54;10.65;;;3.05;;
73100;SDS011;61288;53.446;-2.266;2023-07-13T05:39:20;8.35;;;2.80;;
73100;SDS011;61288;53.446;-2.266;2023-07-13T05:41:45;11.27;;;3.42;;
73100;SDS011;61288;53.446;-2.266;2023-07-13T05:44:11;10.40;;;3.10;;
73100;SDS011;61288;53.446;-2.266;2023-07-13T05:46:36;9.98;;;2.90;;
73100;SDS011;61288;53.446;-2.266;2023-07-13T05:49:01;7.95;;;2.80;;
73100;SDS011;61288;53.446;-2.266;2023-07-13T05:51:28;9.30;;;3.30;;
73100;SDS011;61288;53.446;-2.266;2023-07-13T05:53:54;8.65;;;3.17;;
73100;SDS011;61288;53.446;-2.266;2023-07-13T05:56:19;7.82;;;2.55;;
73100;SDS011;61288;53.446;-2.266;2023-07-13T05:58:45;10.05;;;3.78;;
73100;SDS011;61288;53.446;-2.266;2023-07-13T06:01:12;9.40;;;3.10;;
73100;SDS011;61288;53.446;-2.266;2023-07-13T06:03:39;10.15;;;3.72;;
73100;SDS011;61288;53.446;-2.266;2023-07-13T06:06:07;10.48;;;2.90;;
73100;SDS011;61288;53.446;-2.266;2023-07-13T06:08:34;9.77;;;2.75;;
73100;SDS011;61288;53.446;-2.266;2023-07-13T06:13:49;8.05;;;2.50;;
73100;SDS011;61288;53.446;-2.266;2023-07-13T06:16:15;7.05;;;2.78;;
73100;SDS011;61288;53.446;-2.266;2023-07-13T06:18:41;6.97;;;2.83;;
73100;SDS011;61288;53.446;-2.266;2023-07-13T06:21:17;10.70;;;2.88;;
73100;SDS011;61288;53.446;-2.266;2023-07-13T06:23:46;8.35;;;2.33;;
73100;SDS011;61288;53.446;-2.266;2023-07-13T06:26:17;6.85;;;2.58;;
73100;SDS011;61288;53.446;-2.266;2023-07-13T06:28:43;6.35;;;2.35;;
73100;SDS011;61288;53.446;-2.266;2023-07-13T06:31:10;9.38;;;2.80;;
73100;SDS011;61288;53.446;-2.266;2023-07-13T06:33:37;6.40;;;2.28;;
73100;SDS011;61288;53.446;-2.266;2023-07-13T06:36:03;9.93;;;2.65;;
73100;SDS011;61288;53.446;-2.266;2023-07-13T06:38:30;8.10;;;2.28;;
73100;SDS011;61288;53.446;-2.266;2023-07-13T06:40:56;7.25;;;2.10;;
73100;SDS011;61288;53.446;-2.266;2023-07-13T06:43:22;6.40;;;2.30;;
73100;SDS011;61288;53.446;-2.266;2023-07-13T06:45:50;5.13;;;2.10;;
73100;SDS011;61288;53.446;-2.266;2023-07-13T06:48:16;5.60;;;2.10;;
73100;SDS011;61288;53.446;-2.266;2023-07-13T06:50:44;6.13;;;2.30;;
73100;SDS011;61288;53.446;-2.266;2023-07-13T06:53:13;9.98;;;2.38;;
73100;SDS011;61288;53.446;-2.266;2023-07-13T06:55:39;6.43;;;2.10;;
73100;SDS011;61288;53.446;-2.266;2023-07-13T06:58:08;8.93;;;2.55;;
73100;SDS011;61288;53.446;-2.266;2023-07-13T07:00:34;10.30;;;2.10;;
73100;SDS011;61288;53.446;-2.266;2023-07-13T07:02:59;8.02;;;2.30;;
73100;SDS011;61288;53.446;-2.266;2023-07-13T07:05:25;8.75;;;2.28;;
73100;SDS011;61288;53.446;-2.266;2023-07-13T07:07:50;7.85;;;1.92;;
73100;SDS011;61288;53.446;-2.266;2023-07-13T07:10:18;8.43;;;2.13;;
73100;SDS011;61288;53.446;-2.266;2023-07-13T07:12:43;7.93;;;2.40;;
73100;SDS011;61288;53.446;-2.266;2023-07-13T07:15:09;5.43;;;2.00;;
73100;SDS011;61288;53.446;-2.266;2023-07-13T07:17:35;7.28;;;2.00;;
73100;SDS011;61288;53.446;-2.266;2023-07-13T07:20:01;11.10;;;2.65;;
73100;SDS011;61288;53.446;-2.266;2023-07-13T07:22:28;6.68;;;2.38;;
73100;SDS011;61288;53.446;-2.266;2023-07-13T07:24:55;5.97;;;2.28;;
73100;SDS011;61288;53.446;-2.266;2023-07-13T07:27:21;8.20;;;2.08;;
73100;SDS011;61288;53.446;-2.266;2023-07-13T07:29:49;5.35;;;1.95;;
73100;SDS011;61288;53.446;-2.266;2023-07-13T07:32:15;8.32;;;2.35;;
73100;SDS011;61288;53.446;-2.266;2023-07-13T07:34:40;6.65;;;1.98;;
73100;SDS011;61288;53.446;-2.266;2023-07-13T07:37:06;5.10;;;1.98;;
73100;SDS011;61288;53.446;-2.266;2023-07-13T07:39:32;5.03;;;1.55;;
73100;SDS011;61288;53.446;-2.266;2023-07-13T07:41:57;4.93;;;2.10;;
73100;SDS011;61288;53.446;-2.266;2023-07-13T07:44:23;8.45;;;2.20;;
73100;SDS011;61288;53.446;-2.266;2023-07-13T07:46:49;7.40;;;2.10;;
73100;SDS011;61288;53.446;-2.266;2023-07-13T07:49:15;5.20;;;2.00;;
73100;SDS011;61288;53.446;-2.266;2023-07-13T07:51:40;5.95;;;2.00;;
73100;SDS011;61288;53.446;-2.266;2023-07-13T07:54:06;6.53;;;2.10;;
73100;SDS011;61288;53.446;-2.266;2023-07-13T07:56:32;6.75;;;2.17;;
73100;SDS011;61288;53.446;-2.266;2023-07-13T07:58:57;6.28;;;2.10;;
73100;SDS011;61288;53.446;-2.266;2023-07-13T08:01:23;9.48;;;2.10;;
73100;SDS011;61288;53.446;-2.266;2023-07-13T08:03:48;5.50;;;2.30;;
73100;SDS011;61288;53.446;-2.266;2023-07-13T08:06:14;6.15;;;1.98;;
73100;SDS011;61288;53.446;-2.266;2023-07-13T08:08:39;5.18;;;2.10;;
73100;SDS011;61288;53.446;-2.266;2023-07-13T08:11:06;6.63;;;1.90;;
73100;SDS011;61288;53.446;-2.266;2023-07-13T08:13:33;8.65;;;1.90;;
73100;SDS011;61288;53.446;-2.266;2023-07-13T08:15:59;5.93;;;1.90;;
73100;SDS011;61288;53.446;-2.266;2023-07-13T08:18:24;7.03;;;1.95;;
73100;SDS011;61288;53.446;-2.266;2023-07-13T08:20:50;4.30;;;1.50;;
73100;SDS011;61288;53.446;-2.266;2023-07-13T08:23:16;4.47;;;2.17;;
73100;SDS011;61288;53.446;-2.266;2023-07-13T08:25:42;7.20;;;1.98;;
73100;SDS011;61288;53.446;-2.266;2023-07-13T08:28:07;6.90;;;2.13;;
73100;SDS011;61288;53.446;-2.266;2023-07-13T08:30:33;3.97;;;1.75;;
73100;SDS011;61288;53.446;-2.266;2023-07-13T08:32:58;5.22;;;1.98;;
73100;SDS011;61288;53.446;-2.266;2023-07-13T08:35:24;5.28;;;1.75;;
73100;SDS011;61288;53.446;-2.266;2023-07-13T08:37:51;5.82;;;2.03;;
73100;SDS011;61288;53.446;-2.266;2023-07-13T08:40:18;8.75;;;1.95;;
73100;SDS011;61288;53.446;-2.266;2023-07-13T08:42:54;7.90;;;2.00;;
73100;SDS011;61288;53.446;-2.266;2023-07-13T08:48:20;7.03;;;2.10;;
73100;SDS011;61288;53.446;-2.266;2023-07-13T08:56:27;5.53;;;2.00;;
73100;SDS011;61288;53.446;-2.266;2023-07-13T08:59:01;6.63;;;1.85;;
73100;SDS011;61288;53.446;-2.266;2023-07-13T09:04:19;4.43;;;1.60;;
73100;SDS011;61288;53.446;-2.266;2023-07-13T09:09:32;7.97;;;1.70;;
73100;SDS011;61288;53.446;-2.266;2023-07-13T09:12:26;7.35;;;2.13;;
73100;SDS011;61288;53.446;-2.266;2023-07-13T09:15:02;5.03;;;2.00;;
73100;SDS011;61288;53.446;-2.266;2023-07-13T09:17:33;6.28;;;1.90;;
73100;SDS011;61288;53.446;-2.266;2023-07-13T09:20:04;6.10;;;2.00;;
73100;SDS011;61288;53.446;-2.266;2023-07-13T09:22:49;4.15;;;1.77;;
73100;SDS011;61288;53.446;-2.266;2023-07-13T09:27:53;4.13;;;1.85;;
73100;SDS011;61288;53.446;-2.266;2023-07-13T09:30:30;5.05;;;1.80;;
73100;SDS011;61288;53.446;-2.266;2023-07-13T09:33:03;8.85;;;2.03;;
73100;SDS011;61288;53.446;-2.266;2023-07-13T09:35:29;4.07;;;1.60;;
73100;SDS011;61288;53.446;-2.266;2023-07-13T09:38:03;4.63;;;1.70;;
73100;SDS011;61288;53.446;-2.266;2023-07-13T09:40:48;5.00;;;1.90;;
73100;SDS011;61288;53.446;-2.266;2023-07-13T09:43:17;4.22;;;1.90;;
73100;SDS011;61288;53.446;-2.266;2023-07-13T09:45:46;8.00;;;1.95;;
73100;SDS011;61288;53.446;-2.266;2023-07-13T09:48:15;5.88;;;1.90;;
73100;SDS011;61288;53.446;-2.266;2023-07-13T09:50:42;3.65;;;1.60;;
73100;SDS011;61288;53.446;-2.266;2023-07-13T09:53:18;4.40;;;1.60;;
73100;SDS011;61288;53.446;-2.266;2023-07-13T09:55:45;5.60;;;1.60;;
73100;SDS011;61288;53.446;-2.266;2023-07-13T10:00:43;7.10;;;2.08;;
73100;SDS011;61288;53.446;-2.266;2023-07-13T10:03:25;5.43;;;1.77;;
73100;SDS011;61288;53.446;-2.266;2023-07-13T10:05:53;3.45;;;1.60;;
73100;SDS011;61288;53.446;-2.266;2023-07-13T10:08:29;5.82;;;1.80;;
73100;SDS011;61288;53.446;-2.266;2023-07-13T10:11:01;6.10;;;1.95;;
73100;SDS011;61288;53.446;-2.266;2023-07-13T10:16:15;5.80;;;1.80;;
73100;SDS011;61288;53.446;-2.266;2023-07-13T10:19:02;7.60;;;2.05;;
73100;SDS011;61288;53.446;-2.266;2023-07-13T10:21:36;5.97;;;1.77;;
73100;SDS011;61288;53.446;-2.266;2023-07-13T10:24:15;5.93;;;2.30;;
73100;SDS011;61288;53.446;-2.266;2023-07-13T10:27:13;7.63;;;1.90;;
73100;SDS011;61288;53.446;-2.266;2023-07-13T10:29:48;5.68;;;1.80;;
73100;SDS011;61288;53.446;-2.266;2023-07-13T10:32:20;3.63;;;1.60;;
73100;SDS011;61288;53.446;-2.266;2023-07-13T10:34:49;6.82;;;1.95;;
73100;SDS011;61288;53.446;-2.266;2023-07-13T10:37:23;7.45;;;2.00;;
73100;SDS011;61288;53.446;-2.266;2023-07-13T10:39:52;5.72;;;1.83;;
73100;SDS011;61288;53.446;-2.266;2023-07-13T10:42:25;4.22;;;1.70;;
73100;SDS011;61288;53.446;-2.266;2023-07-13T10:44:55;5.97;;;1.90;;
73100;SDS011;61288;53.446;-2.266;2023-07-13T10:47:21;5.43;;;1.60;;
73100;SDS011;61288;53.446;-2.266;2023-07-13T10:49:52;7.10;;;2.15;;
73100;SDS011;61288;53.446;-2.266;2023-07-13T11:01:08;61.53;;;9.25;;
73100;SDS011;61288;53.446;-2.266;2023-07-13T11:03:46;7.70;;;2.00;;
73100;SDS011;61288;53.446;-2.266;2023-07-13T11:08:59;5.57;;;1.80;;
73100;SDS011;61288;53.446;-2.266;2023-07-13T11:11:46;4.88;;;1.67;;
73100;SDS011;61288;53.446;-2.266;2023-07-13T11:20:18;5.65;;;1.90;;
73100;SDS011;61288;53.446;-2.266;2023-07-13T11:22:51;4.53;;;1.70;;
73100;SDS011;61288;53.446;-2.266;2023-07-13T11:28:37;6.50;;;2.00;;
73100;SDS011;61288;53.446;-2.266;2023-07-13T11:38:17;4.35;;;1.85;;
73100;SDS011;61288;53.446;-2.266;2023-07-13T11:40:46;6.75;;;1.90;;
73100;SDS011;61288;53.446;-2.266;2023-07-13T11:43:17;6.57;;;2.20;;
73100;SDS011;61288;53.446;-2.266;2023-07-13T11:45:49;8.57;;;2.35;;
73100;SDS011;61288;53.446;-2.266;2023-07-13T11:48:19;5.05;;;1.90;;
73100;SDS011;61288;53.446;-2.266;2023-07-13T11:50:50;7.20;;;2.08;;
73100;SDS011;61288;53.446;-2.266;2023-07-13T11:53:26;4.53;;;1.70;;
73100;SDS011;61288;53.446;-2.266;2023-07-13T11:55:53;4.82;;;1.77;;
73100;SDS011;61288;53.446;-2.266;2023-07-13T11:58:21;6.30;;;1.80;;
73100;SDS011;61288;53.446;-2.266;2023-07-13T12:00:53;9.00;;;1.92;;
73100;SDS011;61288;53.446;-2.266;2023-07-13T12:03:21;4.80;;;1.67;;
73100;SDS011;61288;53.446;-2.266;2023-07-13T12:06:00;5.43;;;2.25;;
73100;SDS011;61288;53.446;-2.266;2023-07-13T12:08:30;5.90;;;1.90;;
73100;SDS011;61288;53.446;-2.266;2023-07-13T12:10:59;4.72;;;1.98;;
73100;SDS011;61288;53.446;-2.266;2023-07-13T12:13:35;7.15;;;2.10;;
73100;SDS011;61288;53.446;-2.266;2023-07-13T12:16:07;5.50;;;2.22;;
73100;SDS011;61288;53.446;-2.266;2023-07-13T12:18:38;5.70;;;2.08;;
73100;SDS011;61288;53.446;-2.266;2023-07-13T12:21:04;6.05;;;2.45;;
73100;SDS011;61288;53.446;-2.266;2023-07-13T12:23:33;5.13;;;2.00;;
73100;SDS011;61288;53.446;-2.266;2023-07-13T12:26:03;6.43;;;2.00;;
73100;SDS011;61288;53.446;-2.266;2023-07-13T12:28:51;6.35;;;1.80;;
73100;SDS011;61288;53.446;-2.266;2023-07-13T12:31:31;7.10;;;2.55;;
73100;SDS011;61288;53.446;-2.266;2023-07-13T12:34:06;5.80;;;1.95;;
73100;SDS011;61288;53.446;-2.266;2023-07-13T12:36:35;5.35;;;2.17;;
73100;SDS011;61288;53.446;-2.266;2023-07-13T12:39:47;5.13;;;1.92;;
73100;SDS011;61288;53.446;-2.266;2023-07-13T12:41:51;6.53;;;2.13;;
73100;SDS011;61288;53.446;-2.266;2023-07-13T12:44:23;5.30;;;2.10;;
73100;SDS011;61288;53.446;-2.266;2023-07-13T12:47:04;6.95;;;2.20;;
73100;SDS011;61288;53.446;-2.266;2023-07-13T12:49:39;7.63;;;1.95;;
73100;SDS011;61288;53.446;-2.266;2023-07-13T12:52:16;5.60;;;1.98;;
73100;SDS011;61288;53.446;-2.266;2023-07-13T12:54:55;5.47;;;2.20;;
73100;SDS011;61288;53.446;-2.266;2023-07-13T12:57:29;4.53;;;1.75;;
73100;SDS011;61288;53.446;-2.266;2023-07-13T12:59:55;9.57;;;2.38;;
73100;SDS011;61288;53.446;-2.266;2023-07-13T13:02:32;6.72;;;2.20;;
73100;SDS011;61288;53.446;-2.266;2023-07-13T13:05:02;5.85;;;2.13;;
73100;SDS011;61288;53.446;-2.266;2023-07-13T13:07:29;5.78;;;1.90;;
73100;SDS011;61288;53.446;-2.266;2023-07-13T13:09:54;4.32;;;2.00;;
73100;SDS011;61288;53.446;-2.266;2023-07-13T13:12:21;7.63;;;1.90;;
73100;SDS011;61288;53.446;-2.266;2023-07-13T13:14:49;8.52;;;1.92;;
73100;SDS011;61288;53.446;-2.266;2023-07-13T13:17:22;5.22;;;1.70;;
73100;SDS011;61288;53.446;-2.266;2023-07-13T13:19:52;5.28;;;1.90;;
73100;SDS011;61288;53.446;-2.266;2023-07-13T13:22:20;7.55;;;1.80;;
73100;SDS011;61288;53.446;-2.266;2023-07-13T13:24:49;10.95;;;2.20;;
73100;SDS011;61288;53.446;-2.266;2023-07-13T13:27:18;6.85;;;2.13;;
73100;SDS011;61288;53.446;-2.266;2023-07-13T13:29:46;9.70;;;2.00;;
73100;SDS011;61288;53.446;-2.266;2023-07-13T13:32:18;6.38;;;1.98;;
73100;SDS011;61288;53.446;-2.266;2023-07-13T13:34:45;7.97;;;2.20;;
73100;SDS011;61288;53.446;-2.266;2023-07-13T13:37:20;9.57;;;2.47;;
73100;SDS011;61288;53.446;-2.266;2023-07-13T13:39:47;6.75;;;2.35;;
73100;SDS011;61288;53.446;-2.266;2023-07-13T13:42:14;6.00;;;2.15;;
73100;SDS011;61288;53.446;-2.266;2023-07-13T13:44:39;8.05;;;2.08;;
73100;SDS011;61288;53.446;-2.266;2023-07-13T13:47:16;9.93;;;1.90;;
73100;SDS011;61288;53.446;-2.266;2023-07-13T13:49:45;9.13;;;2.60;;
73100;SDS011;61288;53.446;-2.266;2023-07-13T13:52:13;6.50;;;2.15;;
73100;SDS011;61288;53.446;-2.266;2023-07-13T13:54:38;6.63;;;2.28;;
73100;SDS011;61288;53.446;-2.266;2023-07-13T13:57:04;6.78;;;2.35;;
73100;SDS011;61288;53.446;-2.266;2023-07-13T13:59:30;10.77;;;2.35;;
73100;SDS011;61288;53.446;-2.266;2023-07-13T14:01:57;5.85;;;1.90;;
73100;SDS011;61288;53.446;-2.266;2023-07-13T14:04:25;6.85;;;2.17;;
73100;SDS011;61288;53.446;-2.266;2023-07-13T14:06:50;8.88;;;2.40;;
73100;SDS011;61288;53.446;-2.266;2023-07-13T14:09:17;5.45;;;1.83;;
73100;SDS011;61288;53.446;-2.266;2023-07-13T14:11:44;6.25;;;2.03;;
73100;SDS011;61288;53.446;-2.266;2023-07-13T14:14:16;7.60;;;2.15;;
73100;SDS011;61288;53.446;-2.266;2023-07-13T14:16:45;8.45;;;2.53;;
73100;SDS011;61288;53.446;-2.266;2023-07-13T14:19:18;8.27;;;2.38;;
73100;SDS011;61288;53.446;-2.266;2023-07-13T14:21:43;4.53;;;1.75;;
73100;SDS011;61288;53.446;-2.266;2023-07-13T14:24:08;6.20;;;2.00;;
73100;SDS011;61288;53.446;-2.266;2023-07-13T14:26:37;7.90;;;2.15;;
73100;SDS011;61288;53.446;-2.266;2023-07-13T14:29:08;7.97;;;2.47;;
73100;SDS011;61288;53.446;-2.266;2023-07-13T14:31:39;7.68;;;2.35;;
73100;SDS011;61288;53.446;-2.266;2023-07-13T14:34:04;5.70;;;2.00;;
73100;SDS011;61288;53.446;-2.266;2023-07-13T14:36:31;5.40;;;2.10;;
73100;SDS011;61288;53.446;-2.266;2023-07-13T14:39:22;4.07;;;1.45;;
73100;SDS011;61288;53.446;-2.266;2023-07-13T14:41:52;6.63;;;1.83;;
73100;SDS011;61288;53.446;-2.266;2023-07-13T14:44:21;7.18;;;2.10;;
73100;SDS011;61288;53.446;-2.266;2023-07-13T14:46:49;4.53;;;1.60;;
73100;SDS011;61288;53.446;-2.266;2023-07-13T14:49:33;7.15;;;1.80;;
73100;SDS011;61288;53.446;-2.266;2023-07-13T14:52:03;4.15;;;1.75;;
73100;SDS011;61288;53.446;-2.266;2023-07-13T14:54:42;6.30;;;1.92;;
73100;SDS011;61288;53.446;-2.266;2023-07-13T14:57:12;5.60;;;2.00;;
73100;SDS011;61288;53.446;-2.266;2023-07-13T14:59:38;6.65;;;1.75;;
73100;SDS011;61288;53.446;-2.266;2023-07-13T15:02:14;8.55;;;1.88;;
73100;SDS011;61288;53.446;-2.266;2023-07-13T15:04:40;6.35;;;2.15;;
73100;SDS011;61288;53.446;-2.266;2023-07-13T15:07:07;7.55;;;2.00;;
73100;SDS011;61288;53.446;-2.266;2023-07-13T15:12:02;6.05;;;1.95;;
73100;SDS011;61288;53.446;-2.266;2023-07-13T15:14:30;5.00;;;1.70;;
73100;SDS011;61288;53.446;-2.266;2023-07-13T15:16:56;5.20;;;1.92;;
73100;SDS011;61288;53.446;-2.266;2023-07-13T15:19:21;5.00;;;1.85;;
73100;SDS011;61288;53.446;-2.266;2023-07-13T15:21:48;6.55;;;1.98;;
73100;SDS011;61288;53.446;-2.266;2023-07-13T15:24:14;5.53;;;1.88;;
73100;SDS011;61288;53.446;-2.266;2023-07-13T15:26:40;5.35;;;1.67;;
73100;SDS011;61288;53.446;-2.266;2023-07-13T15:29:11;5.45;;;1.90;;
73100;SDS011;61288;53.446;-2.266;2023-07-13T15:31:37;6.07;;;1.85;;
73100;SDS011;61288;53.446;-2.266;2023-07-13T15:34:07;5.60;;;2.05;;